createdAt,value
2019-04-25T00:01:01.228Z,12.67
2019-04-25T00:03:36.790Z,14.03
2019-04-25T00:06:09.156Z,9.60
2019-04-25T00:08:41.323Z,11.63
2019-04-25T00:11:15.067Z,13.83
2019-04-25T00:13:46.720Z,13.50
2019-04-25T00:16:21.569Z,13.77
2019-04-25T00:18:53.696Z,13.70
2019-04-25T00:21:33.768Z,14.70
2019-04-25T00:24:12.173Z,12.47
2019-04-25T00:26:48.502Z,14.30
2019-04-25T00:29:22.053Z,13.00
2019-04-25T00:31:55.025Z,11.57
2019-04-25T00:34:26.785Z,10.50
2019-04-25T00:36:58.555Z,11.30
2019-04-25T00:39:31.805Z,11.33
2019-04-25T00:42:03.475Z,13.77
2019-04-25T00:44:35.166Z,10.37
2019-04-25T00:47:06.976Z,11.23
2019-04-25T00:49:38.656Z,11.27
2019-04-25T00:52:11.597Z,8.83
2019-04-25T00:54:44.171Z,11.00
2019-04-25T00:57:16.886Z,11.80
2019-04-25T00:59:54.239Z,12.37
2019-04-25T01:02:39.766Z,11.07
2019-04-25T01:05:11.694Z,8.60
2019-04-25T01:07:44.368Z,12.03
2019-04-25T01:10:17.926Z,11.03
2019-04-25T01:12:51.719Z,9.93
2019-04-25T01:15:23.385Z,13.43
2019-04-25T01:17:55.138Z,10.47
2019-04-25T01:20:27.217Z,14.90
2019-04-25T01:23:00.870Z,12.20
2019-04-25T01:25:40.280Z,15.77
2019-04-25T01:28:06.226Z,12.13
2019-04-25T01:30:38.077Z,12.67
2019-04-25T01:33:10.675Z,14.20
2019-04-25T01:36:00.298Z,11.60
2019-04-25T01:38:43.286Z,10.27
2019-04-25T01:41:34.258Z,12.20
2019-04-25T01:44:11.527Z,11.77
2019-04-25T01:46:44.357Z,12.13
2019-04-25T01:49:16.120Z,10.43
2019-04-25T01:51:48.850Z,8.43
2019-04-25T01:54:20.946Z,9.20
2019-04-25T01:56:54.659Z,13.43
2019-04-25T01:59:27.286Z,10.93
2019-04-25T02:01:59.053Z,13.33
2019-04-25T02:04:30.925Z,9.77
2019-04-25T02:07:03.595Z,13.07
2019-04-25T02:09:36.191Z,13.40
2019-04-25T02:12:20.431Z,11.13
2019-04-25T02:14:54.654Z,15.80
2019-04-25T02:17:25.502Z,12.73
2019-04-25T02:19:57.859Z,13.23
2019-04-25T02:22:29.611Z,10.80
2019-04-25T02:25:02.991Z,16.30
2019-04-25T02:27:34.781Z,13.93
2019-04-25T02:30:07.532Z,11.90
2019-04-25T02:32:39.477Z,10.77
2019-04-25T02:35:11.513Z,10.80
2019-04-25T02:37:45.052Z,15.67
2019-04-25T02:40:19.973Z,12.13
2019-04-25T02:42:54.173Z,10.13
2019-04-25T02:45:44.225Z,13.97
2019-04-25T02:48:38.313Z,9.83
2019-04-25T02:51:19.903Z,13.87
2019-04-25T02:53:53.737Z,12.37
2019-04-25T02:56:32.488Z,14.50
2019-04-25T02:59:00.181Z,12.53
2019-04-25T03:01:34.094Z,10.97
2019-04-25T03:04:10.711Z,12.23
2019-04-25T03:06:38.931Z,15.67
2019-04-25T03:09:12.304Z,11.17
2019-04-25T03:11:45.239Z,11.70
2019-04-25T03:14:17.396Z,12.03
2019-04-25T03:16:49.283Z,11.23
2019-04-25T03:19:45.813Z,11.53
2019-04-25T03:22:20.523Z,15.00
2019-04-25T03:24:54.753Z,16.03
2019-04-25T03:27:25.802Z,15.47
2019-04-25T03:29:57.522Z,13.87
2019-04-25T03:32:29.432Z,12.13
2019-04-25T03:35:01.406Z,14.60
2019-04-25T03:37:35.171Z,10.57
2019-04-25T03:40:07.870Z,10.17
2019-04-25T03:42:39.741Z,11.77
2019-04-25T03:45:11.771Z,9.43
2019-04-25T03:47:43.581Z,12.23
2019-04-25T03:50:15.441Z,14.40
2019-04-25T03:52:47.301Z,15.87
2019-04-25T03:55:18.965Z,13.30
2019-04-25T03:57:50.731Z,12.07
2019-04-25T04:00:24.032Z,14.17
2019-04-25T04:02:55.994Z,12.30
2019-04-25T04:05:27.742Z,13.23
2019-04-25T04:07:59.591Z,11.03
2019-04-25T04:10:31.292Z,11.33
2019-04-25T04:13:05.144Z,10.03
2019-04-25T04:15:36.611Z,17.43
2019-04-25T04:18:16.252Z,14.67
2019-04-25T04:21:05.463Z,13.70
2019-04-25T04:23:45.251Z,15.10
2019-04-25T04:26:17.642Z,12.00
2019-04-25T04:28:49.702Z,16.30
2019-04-25T04:31:23.477Z,14.10
2019-04-25T04:33:55.421Z,17.17
2019-04-25T04:36:27.031Z,11.17
2019-04-25T04:38:59.194Z,16.27
2019-04-25T04:41:30.911Z,13.77
2019-04-25T04:44:04.085Z,16.83
2019-04-25T04:46:36.072Z,14.97
2019-04-25T04:49:08.744Z,11.40
2019-04-25T04:51:40.531Z,15.10
2019-04-25T04:54:14.659Z,14.63
2019-04-25T04:56:47.272Z,15.27
2019-04-25T04:59:18.962Z,11.57
2019-04-25T05:02:19.851Z,14.77
2019-04-25T05:05:09.131Z,11.97
2019-04-25T05:07:47.284Z,13.00
2019-04-25T05:10:20.019Z,12.57
2019-04-25T05:12:53.332Z,11.93
2019-04-25T05:15:25.151Z,12.87
2019-04-25T05:17:56.951Z,11.77
2019-04-25T05:20:29.131Z,12.90
2019-04-25T05:23:00.861Z,12.23
2019-04-25T05:25:32.591Z,11.67
2019-04-25T05:28:05.312Z,10.93
2019-04-25T05:30:43.922Z,14.57
2019-04-25T05:33:18.644Z,13.83
2019-04-25T05:35:49.192Z,10.37
2019-04-25T05:38:20.991Z,13.00
2019-04-25T05:41:15.673Z,11.80
2019-04-25T05:43:47.861Z,12.23
2019-04-25T05:46:19.671Z,10.57
2019-04-25T05:48:51.353Z,9.77
2019-04-25T05:51:23.951Z,15.77
2019-04-25T05:53:56.582Z,11.90
2019-04-25T05:56:28.345Z,11.33
2019-04-25T05:59:00.082Z,12.93
2019-04-25T06:01:31.671Z,11.47
2019-04-25T06:04:05.341Z,11.20
2019-04-25T06:06:37.541Z,11.80
2019-04-25T06:09:37.772Z,12.40
2019-04-25T06:12:34.202Z,9.67
2019-04-25T06:15:06.532Z,11.37
2019-04-25T06:17:57.293Z,11.90
2019-04-25T06:20:34.313Z,13.53
2019-04-25T06:23:22.551Z,13.27
2019-04-25T06:25:54.749Z,11.27
2019-04-25T06:28:28.294Z,14.33
2019-04-25T06:31:00.091Z,13.83
2019-04-25T06:33:32.402Z,10.93
2019-04-25T06:36:04.968Z,15.87
2019-04-25T06:38:36.852Z,10.47
2019-04-25T06:41:08.512Z,12.50
2019-04-25T06:43:43.872Z,10.63
2019-04-25T06:46:33.944Z,11.40
2019-04-25T06:49:31.400Z,12.63
2019-04-25T06:52:04.198Z,14.73
2019-04-25T06:54:36.249Z,12.70
2019-04-25T06:57:07.961Z,11.83
2019-04-25T06:59:41.398Z,12.00
2019-04-25T07:02:14.023Z,11.77
2019-04-25T07:04:45.794Z,10.17
2019-04-25T07:07:17.271Z,11.20
2019-04-25T07:09:48.655Z,12.00
2019-04-25T07:12:20.061Z,12.60
2019-04-25T07:14:51.488Z,11.40
2019-04-25T07:17:24.209Z,11.33
2019-04-25T07:19:56.415Z,16.23
2019-04-25T07:22:28.710Z,12.73
2019-04-25T07:25:00.443Z,16.23
2019-04-25T07:27:58.631Z,12.33
2019-04-25T07:30:58.245Z,9.30
2019-04-25T07:33:43.331Z,10.60
2019-04-25T07:36:15.630Z,12.17
2019-04-25T07:38:47.566Z,10.37
2019-04-25T07:41:19.119Z,10.40
2019-04-25T07:43:50.590Z,12.10
2019-04-25T07:46:23.383Z,12.57
2019-04-25T07:48:55.628Z,9.37
2019-04-25T07:51:28.229Z,10.03
2019-04-25T07:54:00.039Z,13.47
2019-04-25T07:56:34.997Z,10.63
2019-04-25T07:59:08.101Z,16.63
2019-04-25T08:01:40.039Z,10.63
2019-04-25T08:04:11.689Z,13.37
2019-04-25T08:06:44.415Z,14.80
2019-04-25T08:09:16.730Z,15.97
2019-04-25T08:11:48.598Z,14.77
2019-04-25T08:14:43.739Z,13.93
2019-04-25T08:17:16.801Z,8.90
2019-04-25T08:19:48.588Z,16.70
2019-04-25T08:22:20.325Z,12.67
2019-04-25T08:24:53.867Z,15.93
2019-04-25T08:27:25.612Z,16.73
2019-04-25T08:29:57.258Z,17.20
2019-04-25T08:32:30.850Z,16.53
2019-04-25T08:35:03.757Z,13.10
2019-04-25T08:37:36.542Z,13.17
2019-04-25T08:40:09.581Z,14.40
2019-04-25T08:42:41.908Z,12.50
2019-04-25T08:45:14.213Z,13.23
2019-04-25T08:47:46.327Z,8.67
2019-04-25T08:50:39.769Z,10.27
2019-04-25T08:53:10.444Z,13.97
2019-04-25T08:56:03.818Z,13.60
2019-04-25T08:59:05.509Z,13.97
2019-04-25T09:01:45.020Z,13.47
2019-04-25T09:04:40.934Z,16.67
2019-04-25T09:07:13.465Z,13.13
2019-04-25T09:09:45.240Z,13.97
2019-04-25T09:12:16.812Z,16.10
2019-04-25T09:14:48.663Z,15.03
2019-04-25T09:17:20.043Z,13.27
2019-04-25T09:19:51.524Z,13.47
2019-04-25T09:22:24.215Z,15.77
2019-04-25T09:24:55.976Z,16.40
2019-04-25T09:27:27.483Z,16.10
2019-04-25T09:29:58.882Z,14.90
2019-04-25T09:32:30.471Z,16.10
2019-04-25T09:35:03.752Z,14.80
2019-04-25T09:37:35.514Z,10.60
2019-04-25T09:40:13.932Z,15.47
2019-04-25T09:42:46.568Z,17.33
2019-04-25T09:45:47.873Z,15.53
2019-04-25T09:48:41.039Z,14.10
2019-04-25T09:51:17.441Z,13.17
2019-04-25T09:53:51.463Z,12.33
2019-04-25T09:56:34.710Z,16.53
2019-04-25T09:59:26.530Z,14.90
2019-04-25T10:01:50.232Z,16.47
2019-04-25T10:04:23.149Z,9.90
2019-04-25T10:06:56.352Z,16.57
2019-04-25T10:09:28.554Z,15.37
2019-04-25T10:12:00.479Z,13.87
2019-04-25T10:15:04.435Z,13.83
2019-04-25T10:17:37.574Z,16.07
2019-04-25T10:20:10.463Z,13.53
2019-04-25T10:22:44.281Z,11.87
2019-04-25T10:25:16.541Z,16.10
2019-04-25T10:27:49.325Z,17.20
2019-04-25T10:30:23.798Z,12.13
2019-04-25T10:32:54.791Z,11.87
2019-04-25T10:35:26.879Z,13.10
2019-04-25T10:37:58.365Z,12.30
2019-04-25T10:40:30.062Z,10.57
2019-04-25T10:43:03.920Z,16.27
2019-04-25T10:45:36.065Z,13.77
2019-04-25T10:48:08.483Z,14.13
2019-04-25T10:50:40.175Z,14.97
2019-04-25T10:53:12.336Z,14.00
2019-04-25T10:55:45.504Z,18.47
2019-04-25T10:58:16.944Z,12.83
2019-04-25T11:00:50.708Z,15.43
2019-04-25T11:03:40.733Z,10.37
2019-04-25T11:06:14.766Z,13.77
2019-04-25T11:08:47.050Z,16.53
2019-04-25T11:11:19.092Z,15.50
2019-04-25T11:13:52.394Z,14.40
2019-04-25T11:16:24.367Z,19.07
2019-04-25T11:18:56.179Z,16.83
2019-04-25T11:21:27.916Z,15.33
2019-04-25T11:24:00.690Z,13.43
2019-04-25T11:26:34.535Z,13.33
2019-04-25T11:29:06.109Z,14.43
2019-04-25T11:31:48.947Z,18.87
2019-04-25T11:34:21.311Z,12.37
2019-04-25T11:36:52.898Z,22.63
2019-04-25T11:39:58.970Z,16.40
2019-04-25T11:42:30.803Z,17.50
2019-04-25T11:45:05.892Z,12.67
2019-04-25T11:47:38.253Z,12.17
2019-04-25T11:50:10.254Z,17.47
2019-04-25T11:52:43.632Z,11.97
2019-04-25T11:55:15.794Z,14.70
2019-04-25T11:57:49.208Z,19.00
2019-04-25T12:00:24.546Z,15.53
2019-04-25T12:02:56.158Z,15.10
2019-04-25T12:05:27.805Z,12.97
2019-04-25T12:07:59.323Z,18.03
2019-04-25T12:10:31.297Z,15.30
2019-04-25T12:13:02.930Z,16.50
2019-04-25T12:15:35.077Z,10.97
2019-04-25T12:18:06.883Z,13.60
2019-04-25T12:20:38.264Z,16.83
2019-04-25T12:23:10.609Z,13.73
2019-04-25T12:25:42.371Z,10.93
2019-04-25T12:34:17.238Z,19.23
2019-04-25T12:36:50.214Z,12.63
2019-04-25T12:39:24.155Z,11.70
2019-04-25T12:41:57.030Z,18.13
2019-04-25T12:44:40.385Z,18.37
2019-04-25T12:47:17.109Z,21.80
2019-04-25T12:49:49.051Z,14.87
2019-04-25T12:52:20.999Z,16.33
2019-04-25T12:54:54.030Z,16.30
2019-04-25T12:57:27.244Z,13.80
2019-04-25T13:00:00.134Z,12.77
2019-04-25T13:02:34.460Z,14.10
2019-04-25T13:05:07.161Z,14.43
2019-04-25T13:07:40.719Z,15.70
2019-04-25T13:10:15.259Z,12.37
2019-04-25T13:12:46.686Z,15.93
2019-04-25T13:15:18.901Z,16.37
2019-04-25T13:17:50.762Z,15.00
2019-04-25T13:20:22.668Z,14.60
2019-04-25T13:22:55.738Z,14.90
2019-04-25T13:25:28.263Z,15.33
2019-04-25T13:28:28.131Z,17.10
2019-04-25T13:31:34.113Z,16.97
2019-04-25T13:34:14.178Z,15.67
2019-04-25T13:36:47.344Z,14.83
2019-04-25T13:39:20.297Z,15.77
2019-04-25T13:41:52.112Z,13.33
2019-04-25T13:44:24.502Z,16.87
2019-04-25T13:46:57.047Z,14.03
2019-04-25T13:49:29.480Z,13.80
2019-04-25T13:52:01.586Z,23.70
2019-04-25T13:54:35.017Z,15.37
2019-04-25T13:57:06.982Z,17.07
2019-04-25T13:59:38.729Z,13.97
2019-04-25T14:02:11.418Z,24.97
2019-04-25T14:04:44.235Z,15.57
2019-04-25T14:07:16.465Z,16.70
2019-04-25T14:09:48.430Z,15.80
2019-04-25T14:12:21.402Z,16.77
2019-04-25T14:14:54.115Z,19.63
2019-04-25T14:17:48.508Z,18.07
2019-04-25T14:20:39.315Z,19.77
2019-04-25T14:23:15.093Z,12.70
2019-04-25T14:25:47.167Z,18.27
2019-04-25T14:28:19.474Z,16.70
2019-04-25T14:30:51.723Z,19.73
2019-04-25T14:33:25.433Z,20.10
2019-04-25T14:35:57.845Z,14.07
2019-04-25T14:38:30.157Z,16.47
2019-04-25T14:41:02.359Z,17.40
2019-04-25T14:43:34.239Z,13.40
2019-04-25T14:46:06.662Z,17.07
2019-04-25T14:48:39.933Z,14.00
2019-04-25T14:51:11.734Z,18.30
2019-04-25T14:53:44.252Z,16.30
2019-04-25T14:56:35.016Z,15.43
2019-04-25T14:59:08.458Z,18.23
2019-04-25T15:01:45.022Z,15.70
2019-04-25T15:04:14.735Z,13.43
2019-04-25T15:06:46.626Z,16.37
2019-04-25T15:09:18.598Z,17.17
2019-04-25T15:11:50.651Z,17.33
2019-04-25T15:14:23.534Z,13.73
2019-04-25T15:16:56.079Z,12.43
2019-04-25T15:19:27.937Z,17.90
2019-04-25T15:21:59.815Z,18.17
2019-04-25T15:24:32.374Z,18.83
2019-04-25T15:27:04.412Z,14.70
2019-04-25T15:29:36.378Z,18.87
2019-04-25T15:32:09.935Z,18.73
2019-04-25T15:34:51.150Z,20.80
2019-04-25T15:37:30.501Z,17.43
2019-04-25T15:40:10.111Z,12.23
2019-04-25T15:43:07.048Z,21.17
2019-04-25T15:45:47.268Z,19.43
2019-04-25T15:48:19.128Z,18.27
2019-04-25T15:50:51.221Z,13.87
2019-04-25T15:53:23.085Z,13.63
2019-04-25T15:55:55.346Z,16.27
2019-04-25T15:58:27.632Z,16.93
2019-04-25T16:00:59.522Z,14.93
2019-04-25T16:03:31.557Z,17.50
2019-04-25T16:06:03.928Z,17.03
2019-04-25T16:08:35.798Z,16.17
2019-04-25T16:11:07.807Z,19.40
2019-04-25T16:13:39.952Z,13.70
2019-04-25T16:16:12.208Z,14.27
2019-04-25T16:18:44.360Z,16.70
2019-04-25T16:21:16.459Z,15.13
2019-04-25T16:23:48.311Z,17.50
2019-04-25T16:26:20.264Z,19.20
2019-04-25T16:28:52.221Z,16.17
2019-04-25T16:31:25.674Z,18.83
2019-04-25T16:33:57.585Z,14.20
2019-04-25T16:36:29.547Z,15.03
2019-04-25T16:39:04.163Z,14.67
2019-04-25T16:41:39.993Z,24.03
2019-04-25T16:44:13.749Z,15.93
2019-04-25T16:46:46.350Z,18.80
2019-04-25T16:49:18.335Z,21.10
2019-04-25T16:51:50.170Z,20.63
2019-04-25T16:54:22.221Z,19.97
2019-04-25T16:56:54.367Z,19.17
2019-04-25T16:59:27.282Z,13.80
2019-04-25T17:01:59.369Z,19.13
2019-04-25T17:04:33.081Z,20.57
2019-04-25T17:07:05.671Z,25.77
2019-04-25T17:09:38.481Z,20.30
2019-04-25T17:12:11.886Z,19.77
2019-04-25T17:15:14.831Z,19.57
2019-04-25T17:18:01.863Z,15.30
2019-04-25T17:20:37.574Z,25.47
2019-04-25T17:23:10.049Z,19.37
2019-04-25T17:25:42.214Z,17.43
2019-04-25T17:28:14.317Z,18.97
2019-04-25T17:30:48.248Z,15.67
2019-04-25T17:33:34.470Z,21.10
2019-04-25T17:36:23.557Z,22.70
2019-04-25T17:39:02.175Z,25.13
2019-04-25T17:41:36.250Z,22.07
2019-04-25T17:44:08.374Z,23.27
2019-04-25T17:46:40.287Z,23.90
2019-04-25T17:49:13.004Z,22.90
2019-04-25T17:51:45.013Z,25.43
2019-04-25T17:54:18.521Z,27.53
2019-04-25T17:56:51.870Z,19.00
2019-04-25T17:59:24.002Z,25.73
2019-04-25T18:01:56.196Z,28.23
2019-04-25T18:04:28.257Z,26.13
2019-04-25T18:07:00.165Z,23.47
2019-04-25T18:09:32.146Z,26.90
2019-04-25T18:12:04.209Z,22.17
2019-04-25T18:14:38.449Z,27.80
2019-04-25T18:17:10.738Z,29.03
2019-04-25T18:19:53.250Z,21.93
2019-04-25T18:22:43.862Z,24.23
2019-04-25T18:25:43.586Z,20.87
2019-04-25T18:28:31.530Z,22.17
2019-04-25T18:31:03.811Z,22.53
2019-04-25T18:33:37.202Z,18.70
2019-04-25T18:36:36.133Z,21.00
2019-04-25T18:39:44.128Z,28.83
2019-04-25T18:42:38.165Z,23.90
2019-04-25T18:45:12.685Z,23.40
2019-04-25T18:47:44.756Z,19.37
2019-04-25T18:50:18.715Z,21.37
2019-04-25T18:53:13.556Z,25.07
2019-04-25T18:55:55.869Z,19.97
2019-04-25T18:58:46.114Z,19.10
2019-04-25T19:01:38.167Z,21.43
2019-04-25T19:04:25.717Z,24.03
2019-04-25T19:06:58.566Z,26.63
2019-04-25T19:09:32.778Z,20.60
2019-04-25T19:12:06.889Z,22.47
2019-04-25T19:14:39.925Z,28.73
2019-04-25T19:17:12.283Z,23.43
2019-04-25T19:19:44.251Z,25.00
2019-04-25T19:22:16.274Z,21.40
2019-04-25T19:24:48.689Z,21.93
2019-04-25T19:27:23.945Z,20.97
2019-04-25T19:29:54.550Z,24.23
2019-04-25T19:32:27.338Z,24.83
2019-04-25T19:34:59.138Z,25.27
2019-04-25T19:37:31.006Z,19.17
2019-04-25T19:40:24.381Z,22.43
2019-04-25T19:43:00.030Z,23.10
2019-04-25T19:45:33.304Z,28.00
2019-04-25T19:48:05.852Z,26.60
2019-04-25T19:50:37.931Z,31.87
2019-04-25T19:53:10.641Z,20.57
2019-04-25T19:55:43.437Z,22.90
2019-04-25T19:58:16.939Z,20.47
2019-04-25T20:00:50.808Z,24.67
2019-04-25T20:03:51.849Z,27.30
2019-04-25T20:06:35.870Z,27.20
2019-04-25T20:09:30.072Z,19.90
2019-04-25T20:12:01.801Z,27.80
2019-04-25T20:14:33.601Z,25.47
2019-04-25T20:17:05.381Z,21.23
2019-04-25T20:19:37.119Z,22.20
2019-04-25T20:22:08.171Z,26.03
2019-04-25T20:24:40.151Z,18.63
2019-04-25T20:27:12.063Z,27.57
2019-04-25T20:29:44.160Z,25.37
2019-04-25T20:32:17.380Z,21.20
2019-04-25T20:34:49.381Z,21.43
2019-04-25T20:37:21.411Z,21.63
2019-04-25T20:39:53.992Z,27.27
2019-04-25T20:42:26.362Z,24.13
2019-04-25T20:44:58.280Z,21.40
2019-04-25T20:47:30.242Z,21.77
2019-04-25T20:50:02.382Z,29.17
2019-04-25T20:52:38.037Z,26.83
2019-04-25T20:55:09.392Z,27.40
2019-04-25T20:57:41.531Z,32.87
2019-04-25T21:00:18.701Z,29.43
2019-04-25T21:02:51.932Z,32.17
2019-04-25T21:05:23.961Z,25.87
2019-04-25T21:07:56.171Z,30.87
2019-04-25T21:10:28.229Z,29.93
2019-04-25T21:13:00.499Z,25.73
2019-04-25T21:15:50.648Z,27.20
2019-04-25T21:18:28.579Z,23.47
2019-04-25T21:21:01.299Z,31.33
2019-04-25T21:23:33.362Z,26.03
2019-04-25T21:26:05.793Z,30.23
2019-04-25T21:28:38.130Z,25.60
2019-04-25T21:31:10.743Z,31.87
2019-04-25T21:33:42.632Z,38.07
2019-04-25T21:36:15.210Z,35.20
2019-04-25T21:38:47.772Z,31.20
2019-04-25T21:41:43.902Z,30.30
2019-04-25T21:44:17.666Z,34.27
2019-04-25T21:46:50.004Z,22.53
2019-04-25T21:49:25.229Z,27.37
2019-04-25T21:51:59.065Z,28.50
2019-04-25T21:54:31.421Z,29.03
2019-04-25T21:57:03.843Z,28.63
2019-04-25T21:59:36.151Z,25.40
2019-04-25T22:02:08.478Z,33.10
2019-04-25T22:04:43.084Z,35.63
2019-04-25T22:07:15.155Z,29.33
2019-04-25T22:09:47.837Z,29.80
2019-04-25T22:12:20.339Z,28.00
2019-04-25T22:14:52.837Z,23.83
2019-04-25T22:17:28.888Z,29.67
2019-04-25T22:20:02.247Z,26.13
2019-04-25T22:22:34.952Z,28.20
2019-04-25T22:25:07.174Z,26.23
2019-04-25T22:27:39.269Z,29.03
2019-04-25T22:30:13.409Z,27.33
2019-04-25T22:33:02.300Z,21.57
2019-04-25T22:35:48.334Z,23.43
2019-04-25T22:38:20.834Z,24.37
2019-04-25T22:40:52.877Z,23.17
2019-04-25T22:43:25.546Z,24.07
2019-04-25T22:45:57.918Z,25.43
2019-04-25T22:48:49.010Z,24.73
2019-04-25T22:51:21.103Z,21.10
2019-04-25T22:53:53.394Z,23.77
2019-04-25T22:56:25.415Z,28.97
2019-04-25T22:58:58.479Z,28.63
2019-04-25T23:01:38.146Z,20.63
2019-04-25T23:04:23.022Z,24.93
2019-04-25T23:06:55.185Z,25.03
2019-04-25T23:09:27.337Z,25.63
2019-04-25T23:11:59.459Z,28.07
2019-04-25T23:14:31.971Z,26.67
2019-04-25T23:17:04.977Z,23.00
2019-04-25T23:19:37.325Z,23.00
2019-04-25T23:22:09.525Z,22.70
2019-04-25T23:24:46.847Z,25.20
2019-04-25T23:27:31.894Z,25.07
2019-04-25T23:30:05.688Z,24.37
2019-04-25T23:32:38.893Z,22.27
2019-04-25T23:35:24.356Z,26.00
2019-04-25T23:37:46.941Z,19.70
2019-04-25T23:40:19.025Z,25.37
2019-04-25T23:42:51.211Z,23.77
2019-04-25T23:45:23.382Z,27.57
2019-04-25T23:47:55.458Z,24.67
2019-04-25T23:50:27.846Z,22.73
2019-04-25T23:53:00.087Z,26.57
2019-04-25T23:55:32.865Z,24.00
2019-04-25T23:58:04.866Z,21.63
